createdAt,value
2017-01-06T00:00:50.310Z,0
2017-01-06T00:01:50.425Z,0
2017-01-06T00:02:50.347Z,0
2017-01-06T00:03:50.501Z,0
2017-01-06T00:04:51.355Z,0
2017-01-06T00:05:50.493Z,0
2017-01-06T00:06:50.378Z,0
2017-01-06T00:07:50.415Z,0
2017-01-06T00:08:50.276Z,0
2017-01-06T00:09:50.619Z,0
2017-01-06T00:10:50.414Z,0
2017-01-06T00:11:50.408Z,0
2017-01-06T00:12:50.547Z,0
2017-01-06T00:13:50.279Z,0
2017-01-06T00:14:50.197Z,0
2017-01-06T00:15:50.419Z,0
2017-01-06T00:16:50.445Z,0
2017-01-06T00:17:50.399Z,0
2017-01-06T00:18:50.508Z,0
2017-01-06T00:19:50.392Z,0
2017-01-06T00:20:50.247Z,0
2017-01-06T00:21:50.524Z,0
2017-01-06T00:22:50.435Z,0
2017-01-06T00:23:50.457Z,0
2017-01-06T00:24:50.650Z,0
2017-01-06T00:25:50.260Z,0
2017-01-06T00:26:50.467Z,0
2017-01-06T00:27:51.157Z,0
2017-01-06T00:28:50.177Z,0
2017-01-06T00:29:50.212Z,0
2017-01-06T00:30:51.358Z,0
2017-01-06T00:31:50.594Z,0
2017-01-06T00:32:50.269Z,0
2017-01-06T00:33:50.477Z,0
2017-01-06T00:34:50.296Z,0
2017-01-06T00:35:50.409Z,0
2017-01-06T00:36:50.350Z,0
2017-01-06T00:37:50.508Z,0
2017-01-06T00:38:50.411Z,0
2017-01-06T00:39:50.479Z,0
2017-01-06T00:40:50.408Z,0
2017-01-06T00:41:50.368Z,0
2017-01-06T00:42:50.280Z,0
2017-01-06T00:43:50.315Z,0
2017-01-06T00:44:50.423Z,0
2017-01-06T00:45:50.388Z,0
2017-01-06T00:46:50.366Z,0
2017-01-06T00:47:50.517Z,0
2017-01-06T00:48:50.310Z,0
2017-01-06T00:49:50.441Z,0
2017-01-06T00:50:50.373Z,0
2017-01-06T00:51:50.337Z,0
2017-01-06T00:52:50.393Z,0
2017-01-06T00:53:50.244Z,0
2017-01-06T00:54:50.428Z,0
2017-01-06T00:55:50.423Z,0
2017-01-06T00:56:50.398Z,0
2017-01-06T00:57:50.933Z,0
2017-01-06T00:58:50.456Z,0
2017-01-06T00:59:51.102Z,0
2017-01-06T01:00:50.265Z,0
2017-01-06T01:01:50.400Z,0
2017-01-06T01:02:50.441Z,0
2017-01-06T01:03:50.378Z,0
2017-01-06T01:04:50.285Z,0
2017-01-06T01:05:50.402Z,0
2017-01-06T01:06:51.682Z,0
2017-01-06T01:07:50.451Z,0
2017-01-06T01:08:50.435Z,0
2017-01-06T01:09:50.405Z,0
2017-01-06T01:10:50.393Z,0
2017-01-06T01:11:50.306Z,0
2017-01-06T01:12:50.895Z,0
2017-01-06T01:13:51.395Z,0
2017-01-06T01:14:50.230Z,0
2017-01-06T01:15:50.290Z,0
2017-01-06T01:16:50.381Z,0
2017-01-06T01:17:50.373Z,0
2017-01-06T01:18:50.269Z,0
2017-01-06T01:19:50.522Z,0
2017-01-06T01:20:52.033Z,0
2017-01-06T01:21:50.390Z,0
2017-01-06T01:22:50.245Z,0
2017-01-06T01:23:50.328Z,0
2017-01-06T01:24:50.392Z,0
2017-01-06T01:25:50.443Z,0
2017-01-06T01:26:50.336Z,0
2017-01-06T01:27:52.406Z,0
2017-01-06T01:28:50.512Z,0
2017-01-06T01:29:50.453Z,0
2017-01-06T01:30:50.448Z,0
2017-01-06T01:31:50.511Z,0
2017-01-06T01:32:50.233Z,0
2017-01-06T01:33:50.398Z,0
2017-01-06T01:34:50.431Z,0
2017-01-06T01:35:50.292Z,0
2017-01-06T01:36:50.320Z,0
2017-01-06T01:37:50.247Z,0
2017-01-06T01:38:50.429Z,0
2017-01-06T01:39:50.341Z,0
2017-01-06T01:40:50.311Z,0
2017-01-06T01:41:50.404Z,0
2017-01-06T01:42:50.465Z,0
2017-01-06T01:43:50.340Z,0
2017-01-06T01:44:50.300Z,0
2017-01-06T01:45:50.370Z,0
2017-01-06T01:46:50.419Z,0
2017-01-06T01:47:50.303Z,0
2017-01-06T01:48:50.357Z,0
2017-01-06T01:49:50.521Z,0
2017-01-06T01:50:50.247Z,0
2017-01-06T01:51:50.346Z,0
2017-01-06T01:52:50.233Z,0
2017-01-06T01:53:50.388Z,0
2017-01-06T01:54:50.339Z,0
2017-01-06T01:55:50.316Z,0
2017-01-06T01:56:50.295Z,0
2017-01-06T01:57:50.244Z,0
2017-01-06T01:58:50.420Z,0
2017-01-06T01:59:50.346Z,0
2017-01-06T02:00:50.267Z,0
2017-01-06T02:01:50.336Z,0
2017-01-06T02:02:51.326Z,0
2017-01-06T02:03:50.381Z,0
2017-01-06T02:04:50.247Z,0
2017-01-06T02:05:51.118Z,0
2017-01-06T02:06:50.472Z,0
2017-01-06T02:07:50.480Z,0
2017-01-06T02:08:50.331Z,0
2017-01-06T02:09:50.292Z,0
2017-01-06T02:10:50.260Z,0
2017-01-06T02:11:50.567Z,0
2017-01-06T02:12:50.334Z,0
2017-01-06T02:13:50.332Z,0
2017-01-06T02:14:50.297Z,0
2017-01-06T02:15:50.468Z,0
2017-01-06T02:16:50.370Z,0
2017-01-06T02:17:50.289Z,0
2017-01-06T02:18:50.500Z,0
2017-01-06T02:19:51.698Z,0
2017-01-06T02:20:50.370Z,0
2017-01-06T02:21:50.405Z,0
2017-01-06T02:22:50.267Z,0
2017-01-06T02:23:50.334Z,0
2017-01-06T02:24:50.347Z,0
2017-01-06T02:25:50.535Z,0
2017-01-06T02:26:50.343Z,0
2017-01-06T02:27:50.372Z,0
2017-01-06T02:28:50.298Z,0
2017-01-06T02:29:50.347Z,0
2017-01-06T02:30:50.291Z,0
2017-01-06T02:31:50.345Z,0
2017-01-06T02:32:51.157Z,0
2017-01-06T02:33:50.343Z,0
2017-01-06T02:34:50.332Z,0
2017-01-06T02:35:50.505Z,0
2017-01-06T02:36:50.554Z,0
2017-01-06T02:37:50.464Z,0
2017-01-06T02:38:50.262Z,0
2017-01-06T02:39:50.644Z,0
2017-01-06T02:40:50.483Z,0
2017-01-06T02:41:50.485Z,0
2017-01-06T02:42:50.523Z,0
2017-01-06T02:43:50.507Z,0
2017-01-06T02:44:50.419Z,0
2017-01-06T02:45:50.324Z,0
2017-01-06T02:46:50.635Z,0
2017-01-06T02:47:50.492Z,0
2017-01-06T02:48:50.494Z,0
2017-01-06T02:49:50.365Z,0
2017-01-06T02:50:50.329Z,0
2017-01-06T02:51:51.587Z,0
2017-01-06T02:52:50.363Z,0
2017-01-06T02:53:50.378Z,0
2017-01-06T02:54:50.434Z,0
2017-01-06T02:55:50.395Z,0
2017-01-06T02:56:50.467Z,0
2017-01-06T02:57:50.433Z,0
2017-01-06T02:58:50.375Z,0
2017-01-06T02:59:50.544Z,0
2017-01-06T03:00:50.315Z,0
2017-01-06T03:01:50.419Z,0
2017-01-06T03:02:50.362Z,0
2017-01-06T03:03:50.343Z,0
2017-01-06T03:04:50.463Z,0
2017-01-06T03:05:50.532Z,0
2017-01-06T03:06:50.484Z,0
2017-01-06T03:07:50.415Z,0
2017-01-06T03:08:50.529Z,0
2017-01-06T03:09:50.381Z,0
2017-01-06T03:10:50.347Z,0
2017-01-06T03:11:51.084Z,0
2017-01-06T03:12:50.307Z,0
2017-01-06T03:13:50.316Z,0
2017-01-06T03:14:50.481Z,0
2017-01-06T03:15:50.513Z,0
2017-01-06T03:16:50.438Z,0
2017-01-06T03:17:50.349Z,0
2017-01-06T03:18:50.901Z,0
2017-01-06T03:19:50.454Z,0
2017-01-06T03:20:50.465Z,0
2017-01-06T03:21:50.412Z,0
2017-01-06T03:22:50.478Z,0
2017-01-06T03:23:50.491Z,0
2017-01-06T03:24:50.392Z,0
2017-01-06T03:25:50.561Z,0
2017-01-06T03:26:50.440Z,0
2017-01-06T03:27:50.395Z,0
2017-01-06T03:28:50.383Z,0
2017-01-06T03:29:50.550Z,0
2017-01-06T03:30:50.439Z,0
2017-01-06T03:31:50.427Z,0
2017-01-06T03:32:52.009Z,0
2017-01-06T03:33:50.439Z,0
2017-01-06T03:34:50.472Z,0
2017-01-06T03:35:50.451Z,0
2017-01-06T03:36:51.185Z,0
2017-01-06T03:37:50.474Z,0
2017-01-06T03:38:50.307Z,0
2017-01-06T03:39:52.374Z,0
2017-01-06T03:40:50.464Z,0
2017-01-06T03:41:50.457Z,0
2017-01-06T03:42:50.494Z,0
2017-01-06T03:43:51.239Z,0
2017-01-06T03:44:50.409Z,0
2017-01-06T03:45:50.466Z,0
2017-01-06T03:46:50.607Z,0
2017-01-06T03:47:50.636Z,0
2017-01-06T03:48:50.519Z,0
2017-01-06T03:49:50.522Z,0
2017-01-06T03:50:50.622Z,0
2017-01-06T03:51:50.381Z,0
2017-01-06T03:52:50.630Z,0
2017-01-06T03:53:50.518Z,0
2017-01-06T03:54:50.518Z,0
2017-01-06T03:55:50.500Z,0
2017-01-06T03:56:50.579Z,0
2017-01-06T03:57:50.452Z,0
2017-01-06T03:58:50.575Z,0
2017-01-06T03:59:50.583Z,0
2017-01-06T04:00:50.353Z,0
2017-01-06T04:01:50.623Z,0
2017-01-06T04:02:50.495Z,0
2017-01-06T04:03:50.487Z,0
2017-01-06T04:04:50.367Z,0
2017-01-06T04:05:50.556Z,0
2017-01-06T04:06:50.630Z,0
2017-01-06T04:07:50.606Z,0
2017-01-06T04:08:50.461Z,0
2017-01-06T04:09:50.530Z,0
2017-01-06T04:10:50.501Z,0
2017-01-06T04:11:50.430Z,0
2017-01-06T04:12:50.416Z,0
2017-01-06T04:13:50.597Z,0
2017-01-06T04:14:50.450Z,0
2017-01-06T04:15:50.437Z,0
2017-01-06T04:16:50.554Z,0
2017-01-06T04:17:50.452Z,0
2017-01-06T04:18:50.559Z,0
2017-01-06T04:19:50.322Z,0
2017-01-06T04:25:09.297Z,0
2017-01-06T04:25:21.130Z,0
2017-01-06T04:26:20.847Z,0
2017-01-06T04:27:21.036Z,0
2017-01-06T04:28:20.887Z,0
2017-01-06T04:29:20.970Z,0
2017-01-06T04:30:20.991Z,0
2017-01-06T04:31:21.144Z,0
2017-01-06T04:32:21.078Z,0
2017-01-06T04:33:20.878Z,0
2017-01-06T04:34:20.934Z,0
2017-01-06T04:35:20.977Z,0
2017-01-06T04:36:20.931Z,0
2017-01-06T04:37:21.650Z,0
2017-01-06T04:38:20.965Z,0
2017-01-06T04:39:20.888Z,0
2017-01-06T04:40:21.653Z,0
2017-01-06T04:41:20.988Z,0
2017-01-06T04:42:20.967Z,0
2017-01-06T04:43:20.868Z,0
2017-01-06T04:44:20.908Z,0
2017-01-06T04:45:20.900Z,0
2017-01-06T04:46:21.058Z,0
2017-01-06T04:47:20.901Z,0
2017-01-06T04:48:20.931Z,0
2017-01-06T04:49:21.016Z,0
2017-01-06T04:50:20.906Z,0
2017-01-06T04:51:20.842Z,0
2017-01-06T04:52:21.646Z,0
2017-01-06T04:53:20.940Z,0
2017-01-06T04:54:20.845Z,0
2017-01-06T04:55:20.898Z,0
2017-01-06T04:56:20.837Z,0
2017-01-06T04:57:21.049Z,0
2017-01-06T04:58:20.891Z,0
2017-01-06T04:59:20.967Z,0
2017-01-06T05:00:20.949Z,0
2017-01-06T05:01:21.012Z,0
2017-01-06T05:02:20.899Z,0
2017-01-06T05:03:21.067Z,0
2017-01-06T05:04:20.935Z,0
2017-01-06T05:05:20.885Z,0
2017-01-06T05:06:20.902Z,0
2017-01-06T05:07:21.001Z,0
2017-01-06T05:08:20.894Z,0
2017-01-06T05:09:21.070Z,0
2017-01-06T05:10:20.971Z,0
2017-01-06T05:11:21.651Z,0
2017-01-06T05:12:20.975Z,0
2017-01-06T05:13:20.901Z,0
2017-01-06T05:14:21.128Z,0
2017-01-06T05:15:20.945Z,0
2017-01-06T05:16:21.042Z,0
2017-01-06T05:17:21.045Z,0
2017-01-06T05:18:20.919Z,0
2017-01-06T05:19:22.124Z,0
2017-01-06T05:20:21.044Z,0
2017-01-06T05:21:20.953Z,0
2017-01-06T05:22:21.024Z,0
2017-01-06T05:23:21.047Z,0
2017-01-06T05:24:20.983Z,0
2017-01-06T05:25:20.947Z,0
2017-01-06T05:26:20.993Z,0
2017-01-06T05:27:21.100Z,0
2017-01-06T05:28:20.878Z,0
2017-01-06T05:29:21.083Z,0
2017-01-06T05:30:22.203Z,0
2017-01-06T05:31:21.058Z,0
2017-01-06T05:32:20.884Z,0
2017-01-06T05:33:20.979Z,0
2017-01-06T05:34:20.833Z,0
2017-01-06T05:35:20.962Z,0
2017-01-06T05:36:20.967Z,0
2017-01-06T05:37:21.008Z,0
2017-01-06T05:38:20.923Z,0
2017-01-06T05:39:21.024Z,0
2017-01-06T05:40:21.016Z,0
2017-01-06T05:41:21.029Z,0
2017-01-06T05:42:20.976Z,0
2017-01-06T05:43:21.033Z,0
2017-01-06T05:44:21.022Z,0
2017-01-06T05:45:21.107Z,0
2017-01-06T05:46:21.023Z,0
2017-01-06T05:47:21.109Z,0
2017-01-06T05:48:20.953Z,0
2017-01-06T05:49:20.964Z,0
2017-01-06T05:50:20.993Z,0
2017-01-06T05:51:21.024Z,0
2017-01-06T05:52:21.048Z,0
2017-01-06T05:53:23.539Z,0
2017-01-06T05:54:20.968Z,0
2017-01-06T05:55:20.974Z,0
2017-01-06T05:56:20.932Z,0
2017-01-06T05:57:20.963Z,0
2017-01-06T05:58:20.973Z,0
2017-01-06T05:59:20.971Z,0
2017-01-06T06:00:21.002Z,0
2017-01-06T06:01:21.015Z,0
2017-01-06T06:02:21.012Z,0
2017-01-06T06:03:20.923Z,0
2017-01-06T06:04:20.964Z,0
2017-01-06T06:05:21.069Z,0
2017-01-06T06:06:20.975Z,0
2017-01-06T06:07:20.912Z,0
2017-01-06T06:08:21.001Z,0
2017-01-06T06:09:21.002Z,0
2017-01-06T06:10:20.950Z,0
2017-01-06T06:11:21.073Z,0
2017-01-06T06:12:21.016Z,0
2017-01-06T06:13:21.120Z,0
2017-01-06T06:14:21.039Z,0
2017-01-06T06:15:21.190Z,0
2017-01-06T06:16:21.046Z,0
2017-01-06T06:17:20.981Z,0
2017-01-06T06:18:20.998Z,0
2017-01-06T06:19:21.190Z,0
2017-01-06T06:20:21.176Z,0
2017-01-06T06:21:21.252Z,0
2017-01-06T06:22:21.130Z,0
2017-01-06T06:23:21.179Z,0
2017-01-06T06:24:21.041Z,0
2017-01-06T06:25:21.083Z,0
2017-01-06T06:26:21.043Z,0
2017-01-06T06:27:21.688Z,0
2017-01-06T06:28:20.950Z,0
2017-01-06T06:29:20.929Z,0
2017-01-06T06:30:20.968Z,0
2017-01-06T06:31:20.969Z,0
2017-01-06T06:32:20.991Z,0
2017-01-06T06:33:21.064Z,0
2017-01-06T06:34:21.082Z,0
2017-01-06T06:35:21.104Z,0
2017-01-06T06:36:21.181Z,0
2017-01-06T06:37:21.243Z,0
2017-01-06T06:38:21.098Z,0
2017-01-06T06:39:21.267Z,0
2017-01-06T06:40:21.118Z,0
2017-01-06T06:41:21.923Z,0
2017-01-06T06:42:21.038Z,0
2017-01-06T06:43:21.209Z,0
2017-01-06T06:44:21.033Z,0
2017-01-06T06:45:21.213Z,0
2017-01-06T06:46:21.024Z,0
2017-01-06T06:47:21.170Z,0
2017-01-06T06:48:21.198Z,0
2017-01-06T06:49:21.216Z,0
2017-01-06T06:50:21.114Z,0
2017-01-06T06:51:21.196Z,0
2017-01-06T06:52:21.038Z,0
2017-01-06T06:53:21.072Z,0
2017-01-06T06:54:21.088Z,0
2017-01-06T06:55:21.857Z,0
2017-01-06T06:56:21.126Z,0
2017-01-06T06:57:21.033Z,0
2017-01-06T06:58:20.964Z,0
2017-01-06T06:59:21.289Z,0
2017-01-06T07:00:21.053Z,0
2017-01-06T07:01:21.206Z,0
2017-01-06T07:02:21.116Z,0
2017-01-06T07:03:21.236Z,0
2017-01-06T07:04:21.146Z,0
2017-01-06T07:05:21.129Z,0
2017-01-06T07:06:21.185Z,0
2017-01-06T07:07:21.219Z,0
2017-01-06T07:08:22.032Z,0
2017-01-06T07:09:21.124Z,0
2017-01-06T07:10:21.075Z,0
2017-01-06T07:11:21.108Z,0
2017-01-06T07:12:21.177Z,0
2017-01-06T07:13:21.243Z,0
2017-01-06T07:14:21.068Z,0
2017-01-06T07:15:21.050Z,0
2017-01-06T07:16:21.095Z,0
2017-01-06T07:17:21.175Z,0
2017-01-06T07:18:21.212Z,0
2017-01-06T07:19:21.095Z,0
2017-01-06T07:20:21.191Z,0
2017-01-06T07:21:21.263Z,0
2017-01-06T07:22:21.033Z,5
2017-01-06T07:23:21.276Z,5
2017-01-06T07:24:21.015Z,5
2017-01-06T07:25:21.113Z,5
2017-01-06T07:26:21.084Z,5
2017-01-06T07:27:21.041Z,5
2017-01-06T07:28:20.990Z,5
2017-01-06T07:29:21.106Z,10
2017-01-06T07:30:21.030Z,10
2017-01-06T07:31:21.225Z,10
2017-01-06T07:32:21.043Z,10
2017-01-06T07:33:21.389Z,10
2017-01-06T07:34:21.182Z,10
2017-01-06T07:35:21.234Z,10
2017-01-06T07:36:21.120Z,15
2017-01-06T07:37:21.241Z,15
2017-01-06T07:38:21.179Z,15
2017-01-06T07:39:21.671Z,15
2017-01-06T07:40:21.516Z,15
2017-01-06T07:41:21.263Z,20
2017-01-06T07:42:21.093Z,20
2017-01-06T07:43:21.132Z,20
2017-01-06T07:44:21.712Z,20
2017-01-06T07:45:21.147Z,20
2017-01-06T07:46:21.049Z,25
2017-01-06T07:47:21.179Z,25
2017-01-06T07:48:21.216Z,25
2017-01-06T07:49:21.273Z,25
2017-01-06T07:50:21.100Z,30
2017-01-06T07:51:21.224Z,30
2017-01-06T07:52:21.097Z,30
2017-01-06T07:53:21.269Z,35
2017-01-06T07:54:21.091Z,35
2017-01-06T07:55:21.175Z,35
2017-01-06T07:56:21.135Z,40
2017-01-06T07:57:21.030Z,40
2017-01-06T07:58:21.130Z,45
2017-01-06T07:59:21.219Z,45
2017-01-06T08:00:21.128Z,50
2017-01-06T08:01:21.279Z,55
2017-01-06T08:02:21.129Z,60
2017-01-06T08:03:21.192Z,65
2017-01-06T08:04:21.139Z,65
2017-01-06T08:05:22.178Z,70
2017-01-06T08:06:21.028Z,70
2017-01-06T08:07:21.085Z,70
2017-01-06T08:08:21.194Z,70
2017-01-06T08:09:21.429Z,70
2017-01-06T08:10:21.130Z,70
2017-01-06T08:11:21.228Z,70
2017-01-06T08:12:21.093Z,70
2017-01-06T08:13:21.751Z,70
2017-01-06T08:14:21.109Z,70
2017-01-06T08:15:21.106Z,70
2017-01-06T08:16:21.671Z,70
2017-01-06T08:17:21.138Z,70
2017-01-06T08:18:21.210Z,70
2017-01-06T08:19:21.120Z,75
2017-01-06T08:20:21.326Z,80
2017-01-06T08:21:21.261Z,85
2017-01-06T08:22:21.158Z,95
2017-01-06T08:23:21.301Z,105
2017-01-06T08:24:21.324Z,110
2017-01-06T08:25:22.173Z,110
2017-01-06T08:26:21.467Z,115
2017-01-06T08:27:21.237Z,115
2017-01-06T08:28:21.128Z,115
2017-01-06T08:29:21.291Z,115
2017-01-06T08:30:21.408Z,120
2017-01-06T08:31:21.269Z,125
2017-01-06T08:32:21.173Z,120
2017-01-06T08:33:21.127Z,120
2017-01-06T08:34:21.226Z,130
2017-01-06T08:35:21.292Z,130
2017-01-06T08:36:21.171Z,135
2017-01-06T08:37:31.183Z,135
2017-01-06T08:38:21.289Z,140
2017-01-06T08:39:21.147Z,135
2017-01-06T08:40:21.292Z,140
2017-01-06T08:41:21.339Z,140
2017-01-06T08:42:21.292Z,145
2017-01-06T08:43:21.246Z,150
2017-01-06T08:44:21.215Z,155
2017-01-06T08:45:21.502Z,160
2017-01-06T08:46:21.253Z,160
2017-01-06T08:47:21.201Z,165
2017-01-06T08:48:21.239Z,165
2017-01-06T08:49:21.290Z,160
2017-01-06T08:50:21.198Z,155
2017-01-06T08:51:21.334Z,155
2017-01-06T08:52:21.158Z,155
2017-01-06T08:53:21.328Z,155
2017-01-06T08:54:21.305Z,160
2017-01-06T08:55:21.362Z,175
2017-01-06T08:56:21.639Z,180
2017-01-06T08:57:21.488Z,180
2017-01-06T08:58:21.279Z,180
2017-01-06T08:59:21.412Z,175
2017-01-06T09:00:21.465Z,165
2017-01-06T09:01:21.275Z,175
2017-01-06T09:02:21.308Z,195
2017-01-06T09:03:21.307Z,195
2017-01-06T09:04:21.219Z,205
2017-01-06T09:05:21.292Z,205
2017-01-06T09:06:21.321Z,200
2017-01-06T09:07:21.196Z,195
2017-01-06T09:08:22.399Z,170
2017-01-06T09:09:21.230Z,185
2017-01-06T09:10:21.263Z,175
2017-01-06T09:11:21.418Z,160
2017-01-06T09:12:21.275Z,160
2017-01-06T09:13:21.226Z,165
2017-01-06T09:14:22.308Z,180
2017-01-06T09:15:21.514Z,200
2017-01-06T09:16:21.268Z,210
2017-01-06T09:17:21.275Z,225
2017-01-06T09:18:21.267Z,230
2017-01-06T09:19:21.244Z,245
2017-01-06T09:20:21.229Z,265
2017-01-06T09:21:21.438Z,275
2017-01-06T09:22:21.276Z,285
2017-01-06T09:23:21.238Z,285
2017-01-06T09:24:21.248Z,280
2017-01-06T09:25:21.265Z,290
2017-01-06T09:26:21.320Z,295
2017-01-06T09:27:22.041Z,300
2017-01-06T09:28:21.233Z,310
2017-01-06T09:29:21.358Z,330
2017-01-06T09:30:21.217Z,325
2017-01-06T09:31:21.400Z,320
2017-01-06T09:32:21.204Z,315
2017-01-06T09:33:21.361Z,305
2017-01-06T09:34:21.306Z,285
2017-01-06T09:35:21.341Z,260
2017-01-06T09:36:21.198Z,270
2017-01-06T09:37:22.297Z,265
2017-01-06T09:38:21.269Z,250
2017-01-06T09:39:21.238Z,255
2017-01-06T09:40:21.420Z,255
2017-01-06T09:41:21.336Z,245
2017-01-06T09:42:21.242Z,250
2017-01-06T09:43:22.007Z,245
2017-01-06T09:44:21.229Z,255
2017-01-06T09:45:21.268Z,265
2017-01-06T09:46:21.362Z,275
2017-01-06T09:47:21.349Z,290
2017-01-06T09:48:21.261Z,300
2017-01-06T09:49:21.292Z,295
2017-01-06T09:50:21.884Z,295
2017-01-06T09:51:21.396Z,300
2017-01-06T09:52:21.197Z,300
2017-01-06T09:53:22.152Z,300
2017-01-06T09:54:21.224Z,295
2017-01-06T09:55:22.075Z,295
2017-01-06T09:56:22.574Z,295
2017-01-06T09:57:22.027Z,285
2017-01-06T09:58:21.306Z,275
2017-01-06T09:59:21.421Z,280
2017-01-06T10:00:21.411Z,265
2017-01-06T10:01:21.316Z,250
2017-01-06T10:02:21.316Z,275
2017-01-06T10:03:21.297Z,285
2017-01-06T10:04:21.338Z,275
2017-01-06T10:05:21.425Z,280
2017-01-06T10:06:21.245Z,285
2017-01-06T10:07:21.396Z,290
2017-01-06T10:08:21.345Z,295
2017-01-06T10:09:22.729Z,295
2017-01-06T10:10:21.294Z,305
2017-01-06T10:11:23.269Z,320
2017-01-06T10:12:21.294Z,320
2017-01-06T10:13:21.580Z,325
2017-01-06T10:14:21.984Z,325
2017-01-06T10:15:21.519Z,320
2017-01-06T10:16:21.365Z,305
2017-01-06T10:17:21.383Z,295
2017-01-06T10:18:22.067Z,280
2017-01-06T10:19:21.386Z,260
2017-01-06T10:20:21.477Z,215
2017-01-06T10:21:21.422Z,220
2017-01-06T10:22:21.328Z,245
2017-01-06T10:23:21.437Z,275
2017-01-06T10:24:21.255Z,275
2017-01-06T10:25:21.473Z,270
2017-01-06T10:26:21.232Z,260
2017-01-06T10:27:31.257Z,245
2017-01-06T10:28:21.296Z,255
2017-01-06T10:29:21.539Z,255
2017-01-06T10:30:21.542Z,260
2017-01-06T10:31:21.489Z,260
2017-01-06T10:32:21.394Z,260
2017-01-06T10:33:21.399Z,260
2017-01-06T10:34:22.043Z,265
2017-01-06T10:35:22.446Z,275
2017-01-06T10:36:21.999Z,275
2017-01-06T10:37:21.934Z,285
2017-01-06T10:38:21.384Z,290
2017-01-06T10:39:21.391Z,290
2017-01-06T10:40:21.392Z,285
2017-01-06T10:41:21.919Z,285
2017-01-06T10:42:21.678Z,275
2017-01-06T10:43:23.502Z,280
2017-01-06T10:44:21.311Z,285
2017-01-06T10:45:21.630Z,275
2017-01-06T10:46:21.543Z,270
2017-01-06T10:47:21.498Z,275
2017-01-06T10:48:21.383Z,275
2017-01-06T10:49:22.171Z,280
2017-01-06T10:50:21.384Z,270
2017-01-06T10:51:21.363Z,265
2017-01-06T10:52:21.324Z,270
2017-01-06T10:53:21.462Z,275
2017-01-06T10:54:21.364Z,275
2017-01-06T10:55:21.364Z,265
2017-01-06T10:56:21.339Z,255
2017-01-06T10:57:21.398Z,260
2017-01-06T10:58:21.474Z,275
2017-01-06T10:59:21.477Z,270
2017-01-06T11:00:21.498Z,275
2017-01-06T11:01:21.431Z,280
2017-01-06T11:02:23.440Z,285
2017-01-06T11:03:21.434Z,290
2017-01-06T11:04:21.289Z,285
2017-01-06T11:05:21.395Z,290
2017-01-06T11:06:21.277Z,295
2017-01-06T11:07:21.450Z,300
2017-01-06T11:08:21.363Z,300
2017-01-06T11:09:21.463Z,300
2017-01-06T11:10:21.482Z,305
2017-01-06T11:11:21.493Z,300
2017-01-06T11:12:21.347Z,305
2017-01-06T11:13:21.988Z,310
2017-01-06T11:14:21.879Z,315
2017-01-06T11:15:21.374Z,330
2017-01-06T11:16:21.587Z,345
2017-01-06T11:17:21.560Z,365
2017-01-06T11:18:21.422Z,390
2017-01-06T11:19:21.393Z,415
2017-01-06T11:20:21.505Z,455
2017-01-06T11:21:21.572Z,485
2017-01-06T11:22:24.068Z,520
2017-01-06T11:23:21.551Z,525
2017-01-06T11:24:21.579Z,505
2017-01-06T11:25:21.453Z,520
2017-01-06T11:26:21.402Z,545
2017-01-06T11:27:21.471Z,550
2017-01-06T11:28:21.402Z,530
2017-01-06T11:29:21.514Z,465
2017-01-06T11:30:21.567Z,390
2017-01-06T11:31:21.526Z,370
2017-01-06T11:32:23.942Z,340
2017-01-06T11:33:21.612Z,325
2017-01-06T11:34:21.419Z,325
2017-01-06T11:35:21.551Z,310
2017-01-06T11:36:21.615Z,320
2017-01-06T11:37:21.520Z,375
2017-01-06T11:38:21.563Z,425
2017-01-06T11:39:21.634Z,430
2017-01-06T11:40:21.654Z,420
2017-01-06T11:41:22.701Z,425
2017-01-06T11:42:21.389Z,430
2017-01-06T11:43:21.623Z,365
2017-01-06T11:44:21.649Z,325
2017-01-06T11:45:22.360Z,315
2017-01-06T11:46:21.372Z,365
2017-01-06T11:47:21.613Z,360
2017-01-06T11:48:21.594Z,370
2017-01-06T11:49:21.661Z,365
2017-01-06T11:50:21.367Z,360
2017-01-06T11:51:22.142Z,355
2017-01-06T11:52:21.531Z,345
2017-01-06T11:53:21.469Z,340
2017-01-06T11:54:21.708Z,335
2017-01-06T11:55:21.538Z,330
2017-01-06T11:56:21.931Z,345
2017-01-06T11:57:22.658Z,345
2017-01-06T11:58:21.423Z,355
2017-01-06T11:59:22.264Z,355
2017-01-06T12:00:21.570Z,355
2017-01-06T12:01:21.628Z,355
2017-01-06T12:02:21.537Z,360
2017-01-06T12:03:22.161Z,370
2017-01-06T12:04:21.506Z,385
2017-01-06T12:05:21.559Z,390
2017-01-06T12:06:21.474Z,400
2017-01-06T12:07:21.520Z,410
2017-01-06T12:08:21.407Z,420
2017-01-06T12:09:21.650Z,450
2017-01-06T12:10:21.509Z,450
2017-01-06T12:11:21.549Z,465
2017-01-06T12:12:21.720Z,495
2017-01-06T12:13:21.627Z,510
2017-01-06T12:14:21.509Z,535
2017-01-06T12:15:21.638Z,535
2017-01-06T12:16:21.483Z,555
2017-01-06T12:17:21.727Z,545
2017-01-06T12:18:21.466Z,560
2017-01-06T12:19:21.641Z,580
2017-01-06T12:20:21.451Z,600
2017-01-06T12:21:21.402Z,590
2017-01-06T12:22:21.397Z,575
2017-01-06T12:23:21.597Z,565
2017-01-06T12:24:21.452Z,555
2017-01-06T12:25:21.533Z,525
2017-01-06T12:26:21.557Z,520
2017-01-06T12:27:22.167Z,515
2017-01-06T12:28:21.485Z,510
2017-01-06T12:29:21.520Z,510
2017-01-06T12:30:21.449Z,475
2017-01-06T12:31:22.218Z,440
2017-01-06T12:32:21.630Z,410
2017-01-06T12:33:21.480Z,385
2017-01-06T12:34:21.436Z,370
2017-01-06T12:35:21.477Z,350
2017-01-06T12:36:22.257Z,335
2017-01-06T12:37:22.166Z,325
2017-01-06T12:38:21.345Z,320
2017-01-06T12:39:21.528Z,315
2017-01-06T12:40:21.524Z,300
2017-01-06T12:41:21.573Z,330
2017-01-06T12:42:21.994Z,370
2017-01-06T12:43:22.297Z,365
2017-01-06T12:44:21.547Z,355
2017-01-06T12:45:21.741Z,330
2017-01-06T12:46:21.591Z,315
2017-01-06T12:47:21.585Z,320
2017-01-06T12:48:21.629Z,330
2017-01-06T12:49:21.658Z,350
2017-01-06T12:50:21.502Z,345
2017-01-06T12:51:22.222Z,325
2017-01-06T12:52:21.544Z,300
2017-01-06T12:53:21.612Z,305
2017-01-06T12:54:21.396Z,325
2017-01-06T12:55:21.482Z,330
2017-01-06T12:56:21.489Z,325
2017-01-06T12:57:21.635Z,325
2017-01-06T12:58:21.567Z,320
2017-01-06T12:59:21.671Z,315
2017-01-06T13:00:22.264Z,310
2017-01-06T13:01:21.612Z,305
2017-01-06T13:02:21.590Z,305
2017-01-06T13:03:22.232Z,305
2017-01-06T13:04:21.755Z,300
2017-01-06T13:05:21.758Z,295
2017-01-06T13:06:21.753Z,280
2017-01-06T13:07:21.599Z,260
2017-01-06T13:08:21.662Z,255
2017-01-06T13:09:21.709Z,270
2017-01-06T13:10:22.262Z,265
2017-01-06T13:11:22.541Z,270
2017-01-06T13:12:21.642Z,270
2017-01-06T13:13:21.665Z,270
2017-01-06T13:14:21.544Z,270
2017-01-06T13:15:21.580Z,275
2017-01-06T13:16:21.672Z,275
2017-01-06T13:17:21.710Z,280
2017-01-06T13:18:21.803Z,280
2017-01-06T13:19:21.602Z,275
2017-01-06T13:20:21.572Z,280
2017-01-06T13:21:21.624Z,280
2017-01-06T13:22:21.856Z,280
2017-01-06T13:23:21.900Z,285
2017-01-06T13:24:21.643Z,290
2017-01-06T13:25:21.799Z,310
2017-01-06T13:26:21.484Z,315
2017-01-06T13:27:21.565Z,315
2017-01-06T13:28:22.139Z,310
2017-01-06T13:29:21.768Z,310
2017-01-06T13:30:21.525Z,310
2017-01-06T13:31:21.858Z,295
2017-01-06T13:32:21.556Z,290
2017-01-06T13:33:21.480Z,285
2017-01-06T13:34:21.907Z,280
2017-01-06T13:35:21.670Z,270
2017-01-06T13:36:21.616Z,265
2017-01-06T13:37:21.527Z,270
2017-01-06T13:38:21.591Z,265
2017-01-06T13:39:21.590Z,260
2017-01-06T13:40:21.758Z,260
2017-01-06T13:41:21.691Z,255
2017-01-06T13:42:21.842Z,250
2017-01-06T13:43:21.599Z,250
2017-01-06T13:44:21.697Z,245
2017-01-06T13:45:21.687Z,250
2017-01-06T13:46:21.681Z,245
2017-01-06T13:47:21.701Z,240
2017-01-06T13:48:21.553Z,245
2017-01-06T13:49:22.039Z,240
2017-01-06T13:50:21.601Z,240
2017-01-06T13:51:21.685Z,240
2017-01-06T13:52:21.781Z,240
2017-01-06T13:53:21.736Z,240
2017-01-06T13:54:21.713Z,235
2017-01-06T13:55:21.705Z,235
2017-01-06T13:56:21.621Z,230
2017-01-06T13:57:21.760Z,225
2017-01-06T13:58:21.533Z,220
2017-01-06T13:59:21.710Z,215
2017-01-06T14:00:21.715Z,215
2017-01-06T14:01:21.851Z,210
2017-01-06T14:02:21.832Z,205
2017-01-06T14:03:21.853Z,200
2017-01-06T14:04:21.755Z,195
2017-01-06T14:05:23.571Z,185
2017-01-06T14:06:21.493Z,165
2017-01-06T14:07:21.605Z,150
2017-01-06T14:08:21.531Z,145
2017-01-06T14:09:21.768Z,140
2017-01-06T14:10:21.482Z,140
2017-01-06T14:11:21.604Z,150
2017-01-06T14:12:21.522Z,155
2017-01-06T14:13:21.604Z,160
2017-01-06T14:14:21.741Z,165
2017-01-06T14:15:21.683Z,160
2017-01-06T14:16:21.563Z,155
2017-01-06T14:17:21.558Z,145
2017-01-06T14:18:22.514Z,150
2017-01-06T14:19:21.617Z,145
2017-01-06T14:20:21.667Z,140
2017-01-06T14:21:21.681Z,140
2017-01-06T14:22:21.690Z,135